Graham, OK (73437)

9:30 PM CST on December 10, 2016 (GMT -0600)
Milo, OK | | Change Station

Elev 899 ft 34.33 °N, 97.33 °W | Updated 10 seconds ago

Overcast
Overcast
46.6 °F
Feels Like 41 °F
N
11.4
Wind Variable Wind from SSE

Today
High -- | Low -- °F
--% Chance of Precip.
Yesterday
High -- | Low -- °F
Precip. -- in
Pressure 30.09 in
Visibility 10.0 miles
Clouds Overcast 2100 ft
Windchill 41 °F
Dew Point 40 °F
Humidity 78%
Rainfall 0.97 in
Snow Depth Not available.
7:25 AM 5:20 PM
Waxing Gibbous, 88% visible
METAR K1F0 110315Z AUTO 18009G17KT 10SM OVC021 07/00 A3009 RMK AO2
Pressure 30.09 in
Visibility 10.0 miles
Clouds Overcast 2100 ft
Windchill 41 °F
Dew Point 40 °F
Humidity 78%
Rainfall 0.97 in
Snow Depth Not available.
7:25 AM 5:20 PM
Waxing Gibbous, 88% visible
METAR K1F0 110315Z AUTO 18009G17KT 10SM OVC021 07/00 A3009 RMK AO2

10-Day Weather Forecast

Almanac

Astronomy

Dec. 10, 2016 Rise Set
Actual Time
Civil Twilight
Nautical Twilight
Astronomical Twilight
Moon
Length of Visible Light
Length of Day
Tomorrow will be .
, % of the Moon is Illuminated

Today's Extremes

State Highs State Lows

Community

WunderPhotos

Upload Photos

1,956,702 photos uploaded!

WunderBlog® & News

Nearby

Air Quality

  Air Quality AQ Index Pollutant
Not available.

Snow Depth

Station Depth Elevation

Earthquake Activity

City Distance Mag. Time & Date
Minimum magnitude displayed is 2.5.

Coastal Water Temperatures

Place Temperature

Stations

Nearby Weather Stations

Station Location Temp. Windchill Dew Point Humidity Wind Precip. Elev Updated Type
                   

Watches & Warnings

There are currently no watches in effect.